createdAt,value
2018-12-21T00:00:16.882Z,14.20
2018-12-21T00:01:16.881Z,13.30
2018-12-21T00:02:16.862Z,13.80
2018-12-21T00:03:16.850Z,14.10
2018-12-21T00:04:16.839Z,13.70
2018-12-21T00:05:16.828Z,14.40
2018-12-21T00:06:16.827Z,13.90
2018-12-21T00:07:16.807Z,14.50
2018-12-21T00:08:16.796Z,14.40
2018-12-21T00:09:16.786Z,14.20
2018-12-21T00:10:16.775Z,14.70
2018-12-21T00:11:16.776Z,14.50
2018-12-21T00:12:16.758Z,14.60
2018-12-21T00:13:16.744Z,14.00
2018-12-21T00:14:16.736Z,14.40
2018-12-21T00:15:16.723Z,12.80
2018-12-21T00:16:16.723Z,13.80
2018-12-21T00:17:16.704Z,13.80
2018-12-21T00:18:16.696Z,13.60
2018-12-21T00:19:16.681Z,13.80
2018-12-21T00:20:16.671Z,12.90
2018-12-21T00:21:21.798Z,13.70
2018-12-21T00:22:17.650Z,13.80
2018-12-21T00:23:16.643Z,13.50
2018-12-21T00:24:16.627Z,13.00
2018-12-21T00:25:16.617Z,13.40
2018-12-21T00:26:16.606Z,13.60
2018-12-21T00:27:16.603Z,13.30
2018-12-21T00:28:16.586Z,13.50
2018-12-21T00:29:16.574Z,13.50
2018-12-21T00:30:16.565Z,13.20
2018-12-21T00:31:17.909Z,14.00
2018-12-21T00:32:16.552Z,13.40
2018-12-21T00:33:16.532Z,13.70
2018-12-21T00:34:16.527Z,14.20
2018-12-21T00:35:16.511Z,13.20
2018-12-21T00:36:16.500Z,13.40
2018-12-21T00:37:16.499Z,12.90
2018-12-21T00:38:16.481Z,13.60
2018-12-21T00:39:16.475Z,13.60
2018-12-21T00:40:16.458Z,13.20
2018-12-21T00:41:16.447Z,14.40
2018-12-21T00:42:16.455Z,13.60
2018-12-21T00:43:16.427Z,13.50
2018-12-21T00:44:16.419Z,14.70
2018-12-21T00:45:16.406Z,13.60
2018-12-21T00:46:16.397Z,14.10
2018-12-21T00:47:16.397Z,13.70
2018-12-21T00:48:16.374Z,14.70
2018-12-21T00:49:16.364Z,13.80
2018-12-21T00:50:16.353Z,13.90
2018-12-21T00:51:16.342Z,14.30
2018-12-21T00:52:16.340Z,14.10
2018-12-21T00:53:16.326Z,14.70
2018-12-21T00:54:16.311Z,14.80
2018-12-21T00:55:16.301Z,14.80
2018-12-21T00:56:16.296Z,14.30
2018-12-21T00:57:16.292Z,14.80
2018-12-21T00:58:16.270Z,14.20
2018-12-21T00:59:16.262Z,14.20
2018-12-21T01:00:16.249Z,14.80
2018-12-21T01:01:16.238Z,14.30
2018-12-21T01:02:16.235Z,13.90
2018-12-21T01:03:16.217Z,14.20
2018-12-21T01:04:16.206Z,14.30
2018-12-21T01:05:16.203Z,13.40
2018-12-21T01:06:16.188Z,13.50
2018-12-21T01:07:16.184Z,13.90
2018-12-21T01:08:16.164Z,13.40
2018-12-21T01:09:16.155Z,13.50
2018-12-21T01:10:16.145Z,12.90
2018-12-21T01:11:16.138Z,13.90
2018-12-21T01:12:16.131Z,13.70
2018-12-21T01:13:16.116Z,13.90
2018-12-21T01:14:16.109Z,12.90
2018-12-21T01:15:16.095Z,13.20
2018-12-21T01:16:16.166Z,13.20
2018-12-21T01:17:16.077Z,13.10
2018-12-21T01:18:16.060Z,13.10
2018-12-21T01:19:16.048Z,13.00
2018-12-21T01:20:16.037Z,12.90
2018-12-21T01:21:16.032Z,12.70
2018-12-21T01:22:16.025Z,12.60
2018-12-21T01:23:16.007Z,13.30
2018-12-21T01:24:15.997Z,13.10
2018-12-21T01:25:15.984Z,13.20
2018-12-21T01:26:15.975Z,12.80
2018-12-21T01:27:15.983Z,12.30
2018-12-21T01:28:15.953Z,13.30
2018-12-21T01:29:15.943Z,13.20
2018-12-21T01:30:15.933Z,13.40
2018-12-21T01:31:15.922Z,12.60
2018-12-21T01:32:15.912Z,12.80
2018-12-21T01:33:15.909Z,12.30
2018-12-21T01:34:15.902Z,12.30
2018-12-21T01:35:15.880Z,12.60
2018-12-21T01:36:15.869Z,12.30
2018-12-21T01:37:15.859Z,12.50
2018-12-21T01:38:15.858Z,12.40
2018-12-21T01:39:15.838Z,12.80
2018-12-21T01:40:15.827Z,12.30
2018-12-21T01:41:15.816Z,12.30
2018-12-21T01:42:15.806Z,12.50
2018-12-21T01:43:15.804Z,12.00
2018-12-21T01:44:15.786Z,12.20
2018-12-21T01:45:15.775Z,13.10
2018-12-21T01:46:15.764Z,11.80
2018-12-21T01:47:15.757Z,11.80
2018-12-21T01:48:15.753Z,12.20
2018-12-21T01:49:15.733Z,12.90
2018-12-21T01:50:15.722Z,13.10
2018-12-21T01:51:15.711Z,12.10
2018-12-21T01:52:15.702Z,12.40
2018-12-21T01:53:15.699Z,12.30
2018-12-21T01:54:15.679Z,13.10
2018-12-21T01:55:15.669Z,12.80
2018-12-21T01:56:15.659Z,12.50
2018-12-21T01:57:15.648Z,12.50
2018-12-21T01:58:30.445Z,12.60
2018-12-21T01:59:15.626Z,12.50
2018-12-21T02:00:15.618Z,12.50
2018-12-21T02:01:15.606Z,13.20
2018-12-21T02:02:15.595Z,12.10
2018-12-21T02:03:15.596Z,12.50
2018-12-21T02:04:15.578Z,12.70
2018-12-21T02:05:15.563Z,12.60
2018-12-21T02:06:15.554Z,12.10
2018-12-21T02:07:15.542Z,12.10
2018-12-21T02:08:15.573Z,12.60
2018-12-21T02:09:15.525Z,12.20
2018-12-21T02:10:15.511Z,12.60
2018-12-21T02:11:15.500Z,12.00
2018-12-21T02:12:15.490Z,12.40
2018-12-21T02:13:15.480Z,12.40
2018-12-21T02:14:15.476Z,12.60
2018-12-21T02:15:15.457Z,12.60
2018-12-21T02:16:15.448Z,12.50
2018-12-21T02:17:15.437Z,13.20
2018-12-21T02:18:15.426Z,12.60
2018-12-21T02:19:15.424Z,12.40
2018-12-21T02:20:15.408Z,12.10
2018-12-21T02:21:15.394Z,12.10
2018-12-21T02:22:15.389Z,12.10
2018-12-21T02:23:15.374Z,11.40
2018-12-21T02:24:15.372Z,11.90
2018-12-21T02:25:15.354Z,12.40
2018-12-21T02:26:15.346Z,11.60
2018-12-21T02:27:15.333Z,12.00
2018-12-21T02:28:15.347Z,11.00
2018-12-21T02:29:15.319Z,12.60
2018-12-21T02:30:15.302Z,12.30
2018-12-21T02:31:15.292Z,11.80
2018-12-21T02:32:15.279Z,12.10
2018-12-21T02:33:15.269Z,11.60
2018-12-21T02:34:15.269Z,11.40
2018-12-21T02:35:15.247Z,11.60
2018-12-21T02:36:15.237Z,12.10
2018-12-21T02:37:15.225Z,11.90
2018-12-21T02:38:15.215Z,12.50
2018-12-21T02:39:15.213Z,12.10
2018-12-21T02:40:15.193Z,12.50
2018-12-21T02:41:15.184Z,12.60
2018-12-21T02:42:15.172Z,12.90
2018-12-21T02:43:15.160Z,12.50
2018-12-21T02:44:15.159Z,13.00
2018-12-21T02:45:15.145Z,12.90
2018-12-21T02:46:15.130Z,12.90
2018-12-21T02:47:15.122Z,12.70
2018-12-21T02:48:15.109Z,13.30
2018-12-21T02:49:15.109Z,12.60
2018-12-21T02:50:15.089Z,12.80
2018-12-21T02:51:15.077Z,12.00
2018-12-21T02:52:15.065Z,12.90
2018-12-21T02:53:15.055Z,12.80
2018-12-21T02:54:15.052Z,12.60
2018-12-21T02:55:15.039Z,12.70
2018-12-21T02:56:15.023Z,12.80
2018-12-21T02:57:15.014Z,13.40
2018-12-21T02:58:15.027Z,13.30
2018-12-21T02:59:15.011Z,12.90
2018-12-21T03:00:14.981Z,13.20
2018-12-21T03:01:14.973Z,12.60
2018-12-21T03:02:14.959Z,12.30
2018-12-21T03:03:14.960Z,12.90
2018-12-21T03:04:14.947Z,12.60
2018-12-21T03:05:14.931Z,13.00
2018-12-21T03:06:14.921Z,12.70
2018-12-21T03:07:14.907Z,12.60
2018-12-21T03:08:14.896Z,11.80
2018-12-21T03:09:15.188Z,12.20
2018-12-21T03:10:14.873Z,12.50
2018-12-21T03:11:14.867Z,11.80
2018-12-21T03:12:14.853Z,12.10
2018-12-21T03:13:14.842Z,12.00
2018-12-21T03:14:14.830Z,11.30
2018-12-21T03:15:14.829Z,11.80
2018-12-21T03:16:14.818Z,10.70
2018-12-21T03:17:14.798Z,10.70
2018-12-21T03:18:14.787Z,10.30
2018-12-21T03:19:14.777Z,11.00
2018-12-21T03:20:14.774Z,11.10
2018-12-21T03:21:14.755Z,11.10
2018-12-21T03:22:15.290Z,10.80
2018-12-21T03:23:14.734Z,10.20
2018-12-21T03:24:14.723Z,10.50
2018-12-21T03:25:14.723Z,9.90
2018-12-21T03:26:14.707Z,10.70
2018-12-21T03:27:14.689Z,10.40
2018-12-21T03:28:14.683Z,10.10
2018-12-21T03:29:14.802Z,10.10
2018-12-21T03:30:14.670Z,9.90
2018-12-21T03:31:14.653Z,9.50
2018-12-21T03:32:14.643Z,9.20
2018-12-21T03:33:14.626Z,9.20
2018-12-21T03:34:14.622Z,9.60
2018-12-21T03:35:14.616Z,9.10
2018-12-21T03:36:14.597Z,8.90
2018-12-21T03:37:14.583Z,8.50
2018-12-21T03:38:14.574Z,8.80
2018-12-21T03:39:14.563Z,9.10
2018-12-21T03:40:14.562Z,8.80
2018-12-21T03:41:14.543Z,8.60
2018-12-21T03:42:14.531Z,8.50
2018-12-21T03:43:14.519Z,8.60
2018-12-21T03:44:14.507Z,9.00
2018-12-21T03:45:14.508Z,9.40
2018-12-21T03:46:14.488Z,8.50
2018-12-21T03:47:14.476Z,10.10
2018-12-21T03:48:14.466Z,9.80
2018-12-21T03:49:14.457Z,10.00
2018-12-21T03:50:14.452Z,10.40
2018-12-21T03:51:14.433Z,9.50
2018-12-21T03:52:23.987Z,10.10
2018-12-21T03:53:15.412Z,10.90
2018-12-21T03:54:14.402Z,10.90
2018-12-21T03:55:14.425Z,11.70
2018-12-21T03:56:14.379Z,10.90
2018-12-21T03:57:14.370Z,11.20
2018-12-21T03:58:14.359Z,10.40
2018-12-21T03:59:14.348Z,11.40
2018-12-21T04:00:14.340Z,10.60
2018-12-21T04:01:14.334Z,10.10
2018-12-21T04:02:14.317Z,11.70
2018-12-21T04:03:14.306Z,10.90
2018-12-21T04:04:14.295Z,11.30
2018-12-21T04:05:14.288Z,11.80
2018-12-21T04:06:14.280Z,11.40
2018-12-21T04:07:14.262Z,11.60
2018-12-21T04:08:14.251Z,11.20
2018-12-21T04:09:14.242Z,11.00
2018-12-21T04:10:14.230Z,10.20
2018-12-21T04:11:14.236Z,11.30
2018-12-21T04:12:14.210Z,10.40
2018-12-21T04:13:14.196Z,10.90
2018-12-21T04:14:14.190Z,10.50
2018-12-21T04:15:14.176Z,9.60
2018-12-21T04:16:14.210Z,10.30
2018-12-21T04:17:14.154Z,11.10
2018-12-21T04:18:14.143Z,10.50
2018-12-21T04:19:14.133Z,10.30
2018-12-21T04:20:14.122Z,10.10
2018-12-21T04:21:14.120Z,10.90
2018-12-21T04:22:14.101Z,10.60
2018-12-21T04:23:14.089Z,11.10
2018-12-21T04:24:14.081Z,11.20
2018-12-21T04:25:14.068Z,11.80
2018-12-21T04:26:14.109Z,11.80
2018-12-21T04:27:14.048Z,10.10
2018-12-21T04:28:14.037Z,11.00
2018-12-21T04:29:14.027Z,10.80
2018-12-21T04:30:14.018Z,11.60
2018-12-21T04:31:14.004Z,11.20
2018-12-21T04:32:14.001Z,11.40
2018-12-21T04:33:13.981Z,11.30
2018-12-21T04:34:13.973Z,11.20
2018-12-21T04:35:13.964Z,10.90
2018-12-21T04:36:13.950Z,10.90
2018-12-21T04:37:13.947Z,10.20
2018-12-21T04:38:13.930Z,10.70
2018-12-21T04:39:13.917Z,11.00
2018-12-21T04:40:13.911Z,11.60
2018-12-21T04:41:13.896Z,10.60
2018-12-21T04:42:13.898Z,11.40
2018-12-21T04:43:13.874Z,10.50
2018-12-21T04:44:13.864Z,9.70
2018-12-21T04:45:13.853Z,10.50
2018-12-21T04:46:13.842Z,11.40
2018-12-21T04:47:13.842Z,11.80
2018-12-21T04:48:13.823Z,10.60
2018-12-21T04:49:13.812Z,10.80
2018-12-21T04:50:13.802Z,11.40
2018-12-21T04:51:13.791Z,11.90
2018-12-21T04:52:13.801Z,11.70
2018-12-21T04:53:13.775Z,11.70
2018-12-21T04:54:13.756Z,11.80
2018-12-21T04:55:13.746Z,13.60
2018-12-21T04:56:13.902Z,13.40
2018-12-21T04:57:13.750Z,13.20
2018-12-21T04:58:13.714Z,12.40
2018-12-21T04:59:13.713Z,13.40
2018-12-21T05:00:13.731Z,12.60
2018-12-21T05:01:13.680Z,12.80
2018-12-21T05:02:13.672Z,13.00
2018-12-21T05:03:13.668Z,13.00
2018-12-21T05:04:19.696Z,13.50
2018-12-21T05:05:14.638Z,12.80
2018-12-21T05:06:13.627Z,14.40
2018-12-21T05:07:13.626Z,12.70
2018-12-21T05:08:13.613Z,13.60
2018-12-21T05:09:13.597Z,13.80
2018-12-21T05:10:13.590Z,13.20
2018-12-21T05:11:13.574Z,14.10
2018-12-21T05:12:13.562Z,13.70
2018-12-21T05:13:13.562Z,15.30
2018-12-21T05:14:13.542Z,14.20
2018-12-21T05:15:13.699Z,13.90
2018-12-21T05:16:13.518Z,14.10
2018-12-21T05:17:13.508Z,14.10
2018-12-21T05:18:13.505Z,14.80
2018-12-21T05:19:13.487Z,14.70
2018-12-21T05:20:13.479Z,15.30
2018-12-21T05:21:13.467Z,14.90
2018-12-21T05:22:13.464Z,15.30
2018-12-21T05:23:13.456Z,15.80
2018-12-21T05:24:13.436Z,15.90
2018-12-21T05:25:13.422Z,15.00
2018-12-21T05:26:13.411Z,15.60
2018-12-21T05:27:13.400Z,15.70
2018-12-21T05:28:13.398Z,17.10
2018-12-21T05:29:13.381Z,15.00
2018-12-21T05:30:13.368Z,16.30
2018-12-21T05:31:13.363Z,16.20
2018-12-21T05:32:13.346Z,15.30
2018-12-21T05:33:13.344Z,16.20
2018-12-21T05:34:13.329Z,16.30
2018-12-21T05:35:13.314Z,16.30
2018-12-21T05:36:13.303Z,15.30
2018-12-21T05:37:13.293Z,16.50
2018-12-21T05:38:13.296Z,16.60
2018-12-21T05:39:13.277Z,15.10
2018-12-21T05:40:13.260Z,16.20
2018-12-21T05:41:13.250Z,15.60
2018-12-21T05:42:13.239Z,17.00
2018-12-21T05:43:13.258Z,16.50
2018-12-21T05:44:13.219Z,17.60
2018-12-21T05:45:13.206Z,18.80
2018-12-21T05:46:13.195Z,16.50
2018-12-21T05:47:13.185Z,17.10
2018-12-21T05:48:13.174Z,15.70
2018-12-21T05:49:13.171Z,18.90
2018-12-21T05:50:13.152Z,16.60
2018-12-21T05:51:13.142Z,17.30
2018-12-21T05:52:13.131Z,16.90
2018-12-21T05:53:13.120Z,15.10
2018-12-21T05:54:13.118Z,16.60
2018-12-21T05:55:13.098Z,16.40
2018-12-21T05:56:13.087Z,15.80
2018-12-21T05:57:13.078Z,16.60
2018-12-21T05:58:13.067Z,17.40
2018-12-21T05:59:13.063Z,15.70
2018-12-21T06:00:13.045Z,16.50
2018-12-21T06:01:13.034Z,17.30
2018-12-21T06:02:13.023Z,17.10
2018-12-21T06:03:13.015Z,15.70
2018-12-21T06:04:13.011Z,16.40
2018-12-21T06:05:12.991Z,17.60
2018-12-21T06:06:12.979Z,16.80
2018-12-21T06:07:12.978Z,17.30
2018-12-21T06:08:12.966Z,17.60
2018-12-21T06:09:12.956Z,16.60
2018-12-21T06:10:12.936Z,16.70
2018-12-21T06:11:12.924Z,16.10
2018-12-21T06:12:12.915Z,18.10
2018-12-21T06:13:12.906Z,17.30
2018-12-21T06:14:12.901Z,17.10
2018-12-21T06:15:12.881Z,17.80
2018-12-21T06:16:12.875Z,17.90
2018-12-21T06:17:12.860Z,17.90
2018-12-21T06:18:12.849Z,16.70
2018-12-21T06:19:12.848Z,15.60
2018-12-21T06:20:12.828Z,15.70
2018-12-21T06:21:12.817Z,16.60
2018-12-21T06:22:12.805Z,15.10
2018-12-21T06:23:12.798Z,16.20
2018-12-21T06:24:12.811Z,16.90
2018-12-21T06:25:12.775Z,19.00
2018-12-21T06:26:12.767Z,15.90
2018-12-21T06:27:12.753Z,15.10
2018-12-21T06:28:12.743Z,15.10
2018-12-21T06:29:12.731Z,15.00
2018-12-21T06:30:12.728Z,15.20
2018-12-21T06:31:12.710Z,15.10
2018-12-21T06:32:12.703Z,15.00
2018-12-21T06:33:12.689Z,15.30
2018-12-21T06:34:12.678Z,13.50
2018-12-21T06:35:12.676Z,14.20
2018-12-21T06:36:12.658Z,15.10
2018-12-21T06:37:12.650Z,14.30
2018-12-21T06:38:12.633Z,14.30
2018-12-21T06:39:12.623Z,14.80
2018-12-21T06:40:12.624Z,15.30
2018-12-21T06:41:12.606Z,15.60
2018-12-21T06:42:12.592Z,15.10
2018-12-21T06:43:12.581Z,14.70
2018-12-21T06:44:12.570Z,15.20
2018-12-21T06:45:12.570Z,15.00
2018-12-21T06:46:14.240Z,15.30
2018-12-21T06:47:12.547Z,15.80
2018-12-21T06:48:12.529Z,15.30
2018-12-21T06:49:12.516Z,16.30
2018-12-21T06:50:12.516Z,18.60
2018-12-21T06:51:12.496Z,17.10
2018-12-21T06:52:12.484Z,17.20
2018-12-21T06:53:17.893Z,18.20
2018-12-21T06:54:13.482Z,19.20
2018-12-21T06:55:12.460Z,19.20
2018-12-21T06:56:12.440Z,20.10
2018-12-21T06:57:12.429Z,20.70
2018-12-21T06:58:12.418Z,21.00
2018-12-21T06:59:12.409Z,21.00
2018-12-21T07:00:12.427Z,22.60
2018-12-21T07:01:12.388Z,21.70
2018-12-21T07:02:12.376Z,21.60
2018-12-21T07:03:17.008Z,22.80
2018-12-21T07:04:13.355Z,22.70
2018-12-21T07:05:12.346Z,20.60
2018-12-21T07:06:12.341Z,22.60
2018-12-21T07:07:12.321Z,21.80
2018-12-21T07:08:12.310Z,20.70
2018-12-21T07:09:12.300Z,20.20
2018-12-21T07:10:12.289Z,20.10
2018-12-21T07:11:12.286Z,19.60
2018-12-21T07:12:12.269Z,21.40
2018-12-21T07:13:12.257Z,21.80
2018-12-21T07:14:12.245Z,21.70
2018-12-21T07:15:12.235Z,22.50
2018-12-21T07:16:12.233Z,21.40
2018-12-21T07:17:12.215Z,21.30
2018-12-21T07:18:12.201Z,20.60
2018-12-21T07:19:12.195Z,19.60
2018-12-21T07:20:12.181Z,21.30
2018-12-21T07:21:12.180Z,19.30
2018-12-21T07:22:12.163Z,20.30
2018-12-21T07:23:12.150Z,18.20
2018-12-21T07:24:12.137Z,18.70
2018-12-21T07:25:12.127Z,18.20
2018-12-21T07:26:12.123Z,18.20
2018-12-21T07:27:12.104Z,18.00
2018-12-21T07:28:12.094Z,18.70
2018-12-21T07:29:12.083Z,18.70
2018-12-21T07:30:12.073Z,18.80
2018-12-21T07:31:12.071Z,17.80
2018-12-21T07:32:12.051Z,18.50
2018-12-21T07:33:12.040Z,18.60
2018-12-21T07:34:12.032Z,19.10
2018-12-21T07:35:12.022Z,19.00
2018-12-21T07:36:12.015Z,17.30
2018-12-21T07:37:11.997Z,17.30
2018-12-21T07:38:11.991Z,18.80
2018-12-21T07:39:11.975Z,15.40
2018-12-21T07:40:11.966Z,15.90
2018-12-21T07:41:11.962Z,15.70
2018-12-21T07:42:11.944Z,14.60
2018-12-21T07:43:11.931Z,15.30
2018-12-21T07:44:11.922Z,15.60
2018-12-21T07:45:11.911Z,14.70
2018-12-21T07:46:11.936Z,13.90
2018-12-21T07:47:11.889Z,13.60
2018-12-21T07:48:11.977Z,13.80
2018-12-21T07:49:11.870Z,15.20
2018-12-21T07:50:11.857Z,13.90
2018-12-21T07:51:11.845Z,13.30
2018-12-21T07:52:11.847Z,13.70
2018-12-21T07:53:11.824Z,14.10
2018-12-21T07:54:11.814Z,15.10
2018-12-21T07:55:11.803Z,14.00
2018-12-21T07:56:11.792Z,14.50
2018-12-21T07:57:11.790Z,12.00
2018-12-21T07:58:11.770Z,12.50
2018-12-21T07:59:11.767Z,12.40
2018-12-21T08:00:11.748Z,13.50
2018-12-21T08:01:11.737Z,14.30
2018-12-21T08:02:11.734Z,13.30
2018-12-21T08:03:11.718Z,14.80
2018-12-21T08:04:11.708Z,15.20
2018-12-21T08:05:11.694Z,12.20
2018-12-21T08:06:11.683Z,13.40
2018-12-21T08:07:11.685Z,12.70
2018-12-21T08:08:11.662Z,13.80
2018-12-21T08:09:11.652Z,13.30
2018-12-21T08:10:11.640Z,12.90
2018-12-21T08:11:11.630Z,12.20
2018-12-21T08:12:11.626Z,12.20
2018-12-21T08:13:11.607Z,11.60
2018-12-21T08:14:11.598Z,11.30
2018-12-21T08:15:11.589Z,11.50
2018-12-21T08:16:11.577Z,11.10
2018-12-21T08:17:11.573Z,12.40
2018-12-21T08:18:11.553Z,13.20
2018-12-21T08:19:11.545Z,12.40
2018-12-21T08:20:11.534Z,10.80
2018-12-21T08:21:11.522Z,9.50
2018-12-21T08:22:11.524Z,10.40
2018-12-21T08:23:11.499Z,10.90
2018-12-21T08:24:11.489Z,10.80
2018-12-21T08:25:11.479Z,11.10
2018-12-21T08:26:11.468Z,12.40
2018-12-21T08:27:11.466Z,12.40
2018-12-21T08:28:11.448Z,10.80
2018-12-21T08:29:11.436Z,10.40
2018-12-21T08:30:11.425Z,10.80
2018-12-21T08:31:11.416Z,11.20
2018-12-21T08:32:11.412Z,11.30
2018-12-21T08:33:11.394Z,11.40
2018-12-21T08:34:11.382Z,12.70
2018-12-21T08:35:11.371Z,10.00
2018-12-21T08:36:11.362Z,10.40
2018-12-21T08:37:11.358Z,11.40
2018-12-21T08:38:11.344Z,10.60
2018-12-21T08:39:11.328Z,11.90
2018-12-21T08:40:11.318Z,11.50
2018-12-21T08:41:11.306Z,11.60
2018-12-21T08:42:11.324Z,10.20
2018-12-21T08:43:11.286Z,9.50
2018-12-21T08:44:11.275Z,9.80
2018-12-21T08:45:11.361Z,9.40
2018-12-21T08:46:11.255Z,9.70
2018-12-21T08:47:11.242Z,10.00
2018-12-21T08:48:11.239Z,9.30
2018-12-21T08:49:11.222Z,10.20
2018-12-21T08:50:11.218Z,9.70
2018-12-21T08:51:11.201Z,9.90
2018-12-21T08:52:11.192Z,9.50
2018-12-21T08:53:11.188Z,9.10
2018-12-21T08:54:11.172Z,9.90
2018-12-21T08:55:11.975Z,9.70
2018-12-21T08:56:11.150Z,10.10
2018-12-21T08:57:11.139Z,9.70
2018-12-21T08:58:11.135Z,11.10
2018-12-21T08:59:11.115Z,11.10
2018-12-21T09:00:11.105Z,9.30
2018-12-21T09:01:11.093Z,10.60
2018-12-21T09:02:11.085Z,8.90
2018-12-21T09:03:11.080Z,9.30
2018-12-21T09:04:11.061Z,9.50
2018-12-21T09:05:11.050Z,9.80
2018-12-21T09:06:18.228Z,10.60
2018-12-21T09:07:12.029Z,9.80
2018-12-21T09:08:11.029Z,10.00
2018-12-21T09:09:11.007Z,10.60
2018-12-21T09:10:10.996Z,10.50
2018-12-21T09:11:10.986Z,10.50
2018-12-21T09:12:10.976Z,9.40
2018-12-21T09:13:10.973Z,9.10
2018-12-21T09:14:10.953Z,9.20
2018-12-21T09:15:10.943Z,8.70
2018-12-21T09:16:10.931Z,9.00
2018-12-21T09:17:10.921Z,8.20
2018-12-21T09:18:10.920Z,10.10
2018-12-21T09:19:10.903Z,8.90
2018-12-21T09:20:10.889Z,9.20
2018-12-21T09:21:10.880Z,8.30
2018-12-21T09:22:10.868Z,9.50
2018-12-21T09:23:10.865Z,8.50
2018-12-21T09:24:10.847Z,8.10
2018-12-21T09:25:10.837Z,7.50
2018-12-21T09:26:10.825Z,8.00
2018-12-21T09:27:10.815Z,7.60
2018-12-21T09:28:10.815Z,7.20
2018-12-21T09:29:10.799Z,7.90
2018-12-21T09:30:10.781Z,7.20
2018-12-21T09:31:10.772Z,6.80
2018-12-21T09:32:10.764Z,7.80
2018-12-21T09:33:10.757Z,6.90
2018-12-21T09:34:10.741Z,7.50
2018-12-21T09:35:10.728Z,7.30
2018-12-21T09:36:10.718Z,7.30
2018-12-21T09:37:10.712Z,7.20
2018-12-21T09:38:10.704Z,6.80
2018-12-21T09:39:10.687Z,6.80
2018-12-21T09:40:10.676Z,7.30
2018-12-21T09:41:10.670Z,6.70
2018-12-21T09:42:10.762Z,7.20
2018-12-21T09:43:10.673Z,7.30
2018-12-21T09:44:10.757Z,7.20
2018-12-21T09:45:10.622Z,6.90
2018-12-21T09:46:10.611Z,7.20
2018-12-21T09:47:10.603Z,6.60
2018-12-21T09:48:10.593Z,7.00
2018-12-21T09:49:10.588Z,7.00
2018-12-21T09:50:10.572Z,6.80
2018-12-21T09:51:10.558Z,9.30
2018-12-21T09:52:10.549Z,8.60
2018-12-21T09:53:10.538Z,7.60
2018-12-21T09:54:10.534Z,6.60
2018-12-21T09:55:10.517Z,7.10
2018-12-21T09:56:10.507Z,7.50
2018-12-21T09:57:10.502Z,7.80
2018-12-21T09:58:10.484Z,6.40
2018-12-21T09:59:10.482Z,6.60
2018-12-21T10:00:10.466Z,6.60
2018-12-21T10:01:10.453Z,7.10
2018-12-21T10:02:10.443Z,6.40
2018-12-21T10:03:10.431Z,5.80
2018-12-21T10:04:10.432Z,6.80
2018-12-21T10:05:10.414Z,6.30
2018-12-21T10:06:10.402Z,6.60
2018-12-21T10:07:10.390Z,6.20
2018-12-21T10:08:10.380Z,6.40
2018-12-21T10:09:10.377Z,5.90
2018-12-21T10:10:10.357Z,5.80
2018-12-21T10:11:10.347Z,5.90
2018-12-21T10:12:10.341Z,6.00
2018-12-21T10:13:10.330Z,5.60
2018-12-21T10:14:10.325Z,5.90
2018-12-21T10:15:10.308Z,5.90
2018-12-21T10:16:10.296Z,5.80
2018-12-21T10:17:10.289Z,6.20
2018-12-21T10:18:10.274Z,5.50
2018-12-21T10:19:10.273Z,6.30
2018-12-21T10:20:10.252Z,5.60
2018-12-21T10:21:10.245Z,6.20
2018-12-21T10:22:10.235Z,5.30
2018-12-21T10:23:10.221Z,6.00
2018-12-21T10:24:18.265Z,5.80
2018-12-21T10:25:11.199Z,5.60
2018-12-21T10:26:10.189Z,5.30
2018-12-21T10:27:10.186Z,5.70
2018-12-21T10:28:10.168Z,5.60
2018-12-21T10:29:10.190Z,5.30
2018-12-21T10:30:10.147Z,5.00
2018-12-21T10:31:10.140Z,4.80
2018-12-21T10:32:10.126Z,6.30
2018-12-21T10:33:10.120Z,4.40
2018-12-21T10:34:10.105Z,4.70
2018-12-21T10:35:10.105Z,4.30
2018-12-21T10:36:10.086Z,4.30
2018-12-21T10:37:10.078Z,4.60
2018-12-21T10:38:10.062Z,4.70
2018-12-21T10:39:10.052Z,4.60
2018-12-21T10:40:10.049Z,5.00
2018-12-21T10:41:10.034Z,4.70
2018-12-21T10:42:10.020Z,4.80
2018-12-21T10:43:10.010Z,4.70
2018-12-21T10:44:09.999Z,4.50
2018-12-21T10:45:09.999Z,4.40
2018-12-21T10:46:09.979Z,4.70
2018-12-21T10:47:09.968Z,4.90
2018-12-21T10:48:09.958Z,5.10
2018-12-21T10:49:09.947Z,4.80
2018-12-21T10:50:09.945Z,4.30
2018-12-21T10:51:09.925Z,4.90
2018-12-21T10:52:09.914Z,4.20
2018-12-21T10:53:09.904Z,4.30
2018-12-21T10:54:09.897Z,4.30
2018-12-21T10:55:09.895Z,4.00
2018-12-21T10:56:09.876Z,4.60
2018-12-21T10:57:09.862Z,4.50
2018-12-21T10:58:09.853Z,4.50
2018-12-21T10:59:09.843Z,4.90
2018-12-21T11:00:09.841Z,4.40
2018-12-21T11:01:09.819Z,4.40
2018-12-21T11:02:09.809Z,4.50
2018-12-21T11:03:09.798Z,3.90
2018-12-21T11:04:09.788Z,4.30
2018-12-21T11:05:09.789Z,4.30
2018-12-21T11:06:09.767Z,4.00
2018-12-21T11:07:09.756Z,4.40
2018-12-21T11:08:09.745Z,4.10
2018-12-21T11:09:09.734Z,3.90
2018-12-21T11:10:09.732Z,3.80
2018-12-21T11:11:09.714Z,3.80
2018-12-21T11:12:09.706Z,4.00
2018-12-21T11:13:09.694Z,4.10
2018-12-21T11:14:09.682Z,3.90
2018-12-21T11:15:09.679Z,3.90
2018-12-21T11:16:09.660Z,4.30
2018-12-21T11:17:09.652Z,3.60
2018-12-21T11:18:09.642Z,4.00
2018-12-21T11:19:09.629Z,4.10
2018-12-21T11:20:09.626Z,3.80
2018-12-21T11:21:09.607Z,4.20
2018-12-21T11:22:09.599Z,66.50
2018-12-21T11:23:09.590Z,26.70
2018-12-21T11:24:09.584Z,4.10
2018-12-21T11:25:09.591Z,3.50
2018-12-21T11:26:09.555Z,3.60
2018-12-21T11:27:09.543Z,4.10
2018-12-21T11:28:09.547Z,5.20
2018-12-21T11:29:09.527Z,3.70
2018-12-21T11:30:09.513Z,3.70
2018-12-21T11:31:09.510Z,3.20
2018-12-21T11:32:09.492Z,3.80
2018-12-21T11:33:09.481Z,3.50
2018-12-21T11:34:09.471Z,3.40
2018-12-21T11:35:09.460Z,3.40
2018-12-21T11:36:09.464Z,3.20
2018-12-21T11:37:09.440Z,3.50
2018-12-21T11:38:09.428Z,3.50
2018-12-21T11:39:09.417Z,3.90
2018-12-21T11:40:09.408Z,3.40
2018-12-21T11:41:09.405Z,3.20
2018-12-21T11:42:09.387Z,3.70
2018-12-21T11:43:09.375Z,3.40
2018-12-21T11:44:09.368Z,3.40
2018-12-21T11:45:09.354Z,3.10
2018-12-21T11:46:09.353Z,3.30
2018-12-21T11:47:09.333Z,3.10
2018-12-21T11:48:09.322Z,3.10
2018-12-21T11:49:09.313Z,3.50
2018-12-21T11:50:09.301Z,2.70
2018-12-21T11:51:09.303Z,3.40
2018-12-21T11:52:09.281Z,3.30
2018-12-21T11:53:09.268Z,3.30
2018-12-21T11:54:09.258Z,3.20
2018-12-21T11:55:09.252Z,3.30
2018-12-21T11:56:09.249Z,3.20
2018-12-21T11:57:09.228Z,3.00
2018-12-21T11:58:09.216Z,3.30
2018-12-21T11:59:09.210Z,3.20
2018-12-21T12:00:09.196Z,3.50
2018-12-21T12:01:09.387Z,3.10
2018-12-21T12:02:09.175Z,3.20
2018-12-21T12:03:09.163Z,3.60
2018-12-21T12:04:09.153Z,3.50
2018-12-21T12:05:09.146Z,3.50
2018-12-21T12:06:09.132Z,3.70
2018-12-21T12:07:09.129Z,3.50
2018-12-21T12:08:09.110Z,3.40
2018-12-21T12:09:09.102Z,3.70
2018-12-21T12:10:09.096Z,3.30
2018-12-21T12:11:09.084Z,3.50
2018-12-21T12:12:09.076Z,3.70
2018-12-21T12:13:09.058Z,3.40
2018-12-21T12:14:09.047Z,3.50
2018-12-21T12:15:09.043Z,3.50
2018-12-21T12:16:09.031Z,3.60
2018-12-21T12:17:09.024Z,3.70
2018-12-21T12:18:09.005Z,3.80
2018-12-21T12:19:08.994Z,3.20
2018-12-21T12:20:08.984Z,3.60
2018-12-21T12:21:08.974Z,3.40
2018-12-21T12:22:08.970Z,3.60
2018-12-21T12:23:08.952Z,3.60
2018-12-21T12:24:08.951Z,3.40
2018-12-21T12:25:08.932Z,3.60
2018-12-21T12:26:08.920Z,3.50
2018-12-21T12:27:08.918Z,3.30
2018-12-21T12:28:08.899Z,3.70
2018-12-21T12:29:08.888Z,3.50
2018-12-21T12:30:08.879Z,3.20
2018-12-21T12:31:08.868Z,3.70
2018-12-21T12:32:08.871Z,3.20
2018-12-21T12:33:08.846Z,3.40
2018-12-21T12:34:08.834Z,3.10
2018-12-21T12:35:08.824Z,2.90
2018-12-21T12:36:08.814Z,3.20
2018-12-21T12:37:08.811Z,3.00
2018-12-21T12:38:08.796Z,3.20
2018-12-21T12:39:08.790Z,3.50
2018-12-21T12:40:08.779Z,3.30
2018-12-21T12:41:08.761Z,3.40
2018-12-21T12:42:08.760Z,3.50
2018-12-21T12:43:08.742Z,3.30
2018-12-21T12:44:08.730Z,3.40
2018-12-21T12:45:08.722Z,3.60
2018-12-21T12:46:08.712Z,3.40
2018-12-21T12:47:08.706Z,3.20
2018-12-21T12:48:08.817Z,3.50
2018-12-21T12:49:08.676Z,3.40
2018-12-21T12:50:08.665Z,3.30
2018-12-21T12:51:08.657Z,3.30
2018-12-21T12:52:08.657Z,3.10
2018-12-21T12:53:08.634Z,3.40
2018-12-21T12:54:08.624Z,3.00
2018-12-21T12:55:08.614Z,3.30
2018-12-21T12:56:08.602Z,3.20
2018-12-21T12:57:08.633Z,3.20
2018-12-21T12:58:08.581Z,3.30
2018-12-21T12:59:08.570Z,3.20
2018-12-21T13:00:08.561Z,3.10
2018-12-21T13:01:08.551Z,3.20